CheckWX is a tool to help pilots better visualize weather data.  It is not intended as a substitute for an official pre-flight weather briefing.

17:43:30 UTC

KGOO METAR
Nevada County Airport
Grass Valley, California, USA
Current

29 mins ago

KGOO 211715Z AUTO 00000KT 10SM CLR 27/14 A3003 RMK A01
Observed
Jul-21 @ 17:15 UTC
Visibility
10 SM
Flight Rules
VFR
Cloud Levels
  • Clear skies
Temperature
27°C / 81°F
Dewpoint
14°C / 57°F
Heat Index
27°C / 81°F
Humidity
45%
Altimeter
30.03" Hg
Pressure
1016.92 hPa
Previous

49 mins ago

KGOO 211655Z AUTO 00000KT 10SM CLR 26/13 A3003 RMK A01
Observed
Jul-21 @ 16:55 UTC
Visibility
10 SM
Flight Rules
VFR
Cloud Levels
  • Clear skies
Temperature
26°C / 79°F
Dewpoint
13°C / 55°F
Humidity
45%
Altimeter
30.03" Hg
Pressure
1016.92 hPa
Previous

1 hour ago

KGOO 211635Z AUTO 00000KT 10SM CLR 25/13 A3003 RMK A01
Observed
Jul-21 @ 16:35 UTC
Visibility
10 SM
Flight Rules
VFR
Cloud Levels
  • Clear skies
Temperature
25°C / 77°F
Dewpoint
13°C / 55°F
Humidity
47%
Altimeter
30.03" Hg
Pressure
1016.92 hPa